AAL1552 KLAX-KORD
Flight info
| Callsign | AAL1552 |
|---|---|
| Flight time | 3h 33m |
| Altitude | 35000 |
| Route | ORCKA5 LAS BAWER HVE J60 DBL LBF FOD MYRRS FYTTE7 |
| Aircraft | A321/M-SDE3FGHIRWY/LB1 |
Departure
| Time | 2026-04-21 04:35 |
|---|---|
| Airport | Los Angeles International Airport (KLAX) |
Arrival
| Time | 2026-04-21 08:08 |
|---|---|
| Airport | Chicago O'Hare International Airport (KORD) |
| Time | Latitude | Longitude | Altitude | Speed | Heading |
|---|---|---|---|---|---|
| 2026-04-21 03:55 | 33.93962 | -118.40924 | 93 ft | 0 kts | 290° |
| 2026-04-21 04:20 | 33.93957 | -118.40909 | 94 ft | 4 kts | 290° |
| 2026-04-21 04:20 | 33.93949 | -118.40883 | 93 ft | 3 kts | 290° |
| 2026-04-21 04:21 | 33.93943 | -118.40853 | 92 ft | 4 kts | 263° |
| 2026-04-21 04:21 | 33.93952 | -118.40826 | 92 ft | 4 kts | 215° |
| 2026-04-21 04:21 | 33.93975 | -118.40818 | 92 ft | 4 kts | 173° |
| 2026-04-21 04:21 | 33.93994 | -118.40821 | 92 ft | 0 kts | 173° |
| 2026-04-21 04:25 | 33.93963 | -118.40817 | 93 ft | 10 kts | 173° |
| 2026-04-21 04:25 | 33.93905 | -118.40798 | 94 ft | 3 kts | 152° |
| 2026-04-21 04:25 | 33.93882 | -118.40778 | 95 ft | 7 kts | 143° |
| 2026-04-21 04:26 | 33.93816 | -118.40706 | 94 ft | 16 kts | 115° |
| 2026-04-21 04:26 | 33.93819 | -118.40574 | 94 ft | 16 kts | 83° |
| 2026-04-21 04:26 | 33.93832 | -118.40437 | 95 ft | 18 kts | 83° |
| 2026-04-21 04:26 | 33.93850 | -118.40282 | 96 ft | 19 kts | 82° |
| 2026-04-21 04:27 | 33.93867 | -118.40125 | 97 ft | 19 kts | 83° |
| 2026-04-21 04:27 | 33.93884 | -118.39963 | 98 ft | 20 kts | 83° |
| 2026-04-21 04:27 | 33.93900 | -118.39793 | 99 ft | 21 kts | 83° |
| 2026-04-21 04:27 | 33.93919 | -118.39610 | 95 ft | 22 kts | 83° |
| 2026-04-21 04:28 | 33.93939 | -118.39422 | 97 ft | 23 kts | 83° |
| 2026-04-21 04:28 | 33.93951 | -118.39293 | 93 ft | 24 kts | 83° |
| 2026-04-21 04:28 | 33.93971 | -118.39095 | 94 ft | 24 kts | 83° |
| 2026-04-21 04:28 | 33.93998 | -118.38830 | 97 ft | 24 kts | 83° |
| 2026-04-21 04:29 | 33.94018 | -118.38628 | 95 ft | 24 kts | 83° |
| 2026-04-21 04:29 | 33.94032 | -118.38492 | 95 ft | 24 kts | 83° |
| 2026-04-21 04:29 | 33.94052 | -118.38297 | 96 ft | 24 kts | 83° |
| 2026-04-21 04:29 | 33.94075 | -118.38060 | 93 ft | 13 kts | 89° |
| 2026-04-21 04:30 | 33.94073 | -118.38035 | 93 ft | 2 kts | 102° |
| 2026-04-21 04:30 | 33.94072 | -118.38033 | 93 ft | 0 kts | 104° |
| 2026-04-21 04:33 | 33.94071 | -118.38028 | 93 ft | 1 kts | 110° |
| 2026-04-21 04:33 | 33.94052 | -118.38006 | 93 ft | 9 kts | 146° |
| 2026-04-21 04:33 | 33.93988 | -118.38002 | 95 ft | 9 kts | 217° |
| 2026-04-21 04:33 | 33.93982 | -118.38036 | 94 ft | 0 kts | 262° |
| 2026-04-21 04:34 | 33.93981 | -118.38037 | 94 ft | 0 kts | 262° |
| 2026-04-21 04:34 | 33.93979 | -118.38063 | 94 ft | 12 kts | 262° |
| 2026-04-21 04:34 | 33.93936 | -118.38471 | 103 ft | 84 kts | 263° |
| 2026-04-21 04:35 | 33.93838 | -118.39425 | 98 ft | 142 kts | 263° |
| 2026-04-21 04:35 | 33.93695 | -118.40767 | 274 ft | 173 kts | 262° |
| 2026-04-21 04:35 | 33.93549 | -118.42220 | 904 ft | 178 kts | 262° |
| 2026-04-21 04:35 | 33.93389 | -118.43804 | 1268 ft | 202 kts | 262° |
| 2026-04-21 04:36 | 33.93127 | -118.45562 | 1574 ft | 225 kts | 250° |
| 2026-04-21 04:36 | 33.92283 | -118.47243 | 1979 ft | 243 kts | 232° |
| 2026-04-21 04:36 | 33.91207 | -118.48862 | 2590 ft | 251 kts | 231° |
| 2026-04-21 04:36 | 33.90103 | -118.50496 | 3213 ft | 258 kts | 231° |
| 2026-04-21 04:37 | 33.88893 | -118.52099 | 3910 ft | 261 kts | 219° |
| 2026-04-21 04:37 | 33.87287 | -118.53127 | 4658 ft | 263 kts | 195° |
| 2026-04-21 04:37 | 33.85458 | -118.53275 | 5364 ft | 266 kts | 178° |
| 2026-04-21 04:37 | 33.83609 | -118.53144 | 6120 ft | 266 kts | 177° |
| 2026-04-21 04:38 | 33.81758 | -118.52999 | 6808 ft | 267 kts | 177° |
| 2026-04-21 04:38 | 33.79894 | -118.52852 | 7493 ft | 268 kts | 177° |
| 2026-04-21 04:38 | 33.78029 | -118.52707 | 8187 ft | 269 kts | 178° |
| 2026-04-21 04:38 | 33.76155 | -118.52566 | 8884 ft | 271 kts | 178° |
| 2026-04-21 04:39 | 33.74265 | -118.52424 | 9605 ft | 272 kts | 178° |
| 2026-04-21 04:39 | 33.72405 | -118.52156 | 10231 ft | 276 kts | 167° |
| 2026-04-21 04:39 | 33.70637 | -118.51204 | 10801 ft | 284 kts | 149° |
| 2026-04-21 04:39 | 33.69223 | -118.49427 | 10979 ft | 311 kts | 126° |
| 2026-04-21 04:40 | 33.68223 | -118.47013 | 11107 ft | 335 kts | 114° |
| 2026-04-21 04:40 | 33.67500 | -118.44276 | 11232 ft | 354 kts | 111° |
| 2026-04-21 04:40 | 33.66691 | -118.41413 | 11375 ft | 369 kts | 113° |
| 2026-04-21 04:40 | 33.65795 | -118.38481 | 11777 ft | 376 kts | 114° |
| 2026-04-21 04:41 | 33.64924 | -118.35506 | 12261 ft | 382 kts | 109° |
| 2026-04-21 04:41 | 33.64465 | -118.32335 | 12755 ft | 390 kts | 97° |
| 2026-04-21 04:41 | 33.64430 | -118.29048 | 13241 ft | 395 kts | 93° |
| 2026-04-21 04:41 | 33.64439 | -118.25733 | 13725 ft | 399 kts | 93° |
| 2026-04-21 04:42 | 33.64452 | -118.22426 | 14178 ft | 403 kts | 93° |
| 2026-04-21 04:42 | 33.64463 | -118.19049 | 14626 ft | 406 kts | 93° |
| 2026-04-21 04:42 | 33.64468 | -118.15647 | 15094 ft | 409 kts | 94° |
| 2026-04-21 04:42 | 33.64467 | -118.12221 | 15569 ft | 412 kts | 94° |
| 2026-04-21 04:43 | 33.64464 | -118.08774 | 16028 ft | 414 kts | 94° |
| 2026-04-21 04:43 | 33.64460 | -118.05303 | 16472 ft | 417 kts | 94° |
| 2026-04-21 04:43 | 33.64456 | -118.01812 | 16921 ft | 419 kts | 94° |
| 2026-04-21 04:43 | 33.64451 | -117.98311 | 17356 ft | 421 kts | 95° |
| 2026-04-21 04:44 | 33.64444 | -117.94262 | 17852 ft | 424 kts | 95° |
| 2026-04-21 04:44 | 33.64436 | -117.90713 | 18254 ft | 427 kts | 95° |
| 2026-04-21 04:44 | 33.64429 | -117.87139 | 18615 ft | 429 kts | 95° |
| 2026-04-21 04:44 | 33.64421 | -117.83553 | 18976 ft | 431 kts | 95° |
| 2026-04-21 04:45 | 33.64493 | -117.79942 | 19335 ft | 436 kts | 89° |
| 2026-04-21 04:45 | 33.65020 | -117.76334 | 19709 ft | 441 kts | 81° |
| 2026-04-21 04:45 | 33.65726 | -117.72730 | 20080 ft | 443 kts | 81° |
| 2026-04-21 04:45 | 33.66427 | -117.69126 | 20468 ft | 445 kts | 81° |
| 2026-04-21 04:46 | 33.67117 | -117.65546 | 20848 ft | 446 kts | 81° |
| 2026-04-21 04:46 | 33.67825 | -117.61860 | 21233 ft | 448 kts | 81° |
| 2026-04-21 04:46 | 33.68514 | -117.58257 | 21598 ft | 450 kts | 81° |
| 2026-04-21 04:46 | 33.69214 | -117.54584 | 21983 ft | 452 kts | 81° |
| 2026-04-21 04:47 | 33.69916 | -117.50902 | 22360 ft | 453 kts | 80° |
| 2026-04-21 04:47 | 33.70623 | -117.47205 | 22700 ft | 455 kts | 80° |
| 2026-04-21 04:47 | 33.71331 | -117.43495 | 23062 ft | 456 kts | 80° |
| 2026-04-21 04:47 | 33.72039 | -117.39769 | 23414 ft | 458 kts | 80° |
| 2026-04-21 04:48 | 33.72747 | -117.36031 | 23744 ft | 460 kts | 80° |
| 2026-04-21 04:48 | 33.73456 | -117.32279 | 24018 ft | 462 kts | 80° |
| 2026-04-21 04:48 | 33.74159 | -117.28553 | 24290 ft | 464 kts | 80° |
| 2026-04-21 04:48 | 33.74827 | -117.24759 | 24551 ft | 464 kts | 84° |
| 2026-04-21 04:49 | 33.75084 | -117.20906 | 24812 ft | 462 kts | 94° |
| 2026-04-21 04:49 | 33.75007 | -117.17047 | 25119 ft | 464 kts | 95° |
| 2026-04-21 04:49 | 33.74923 | -117.13155 | 25391 ft | 466 kts | 95° |
| 2026-04-21 04:49 | 33.74842 | -117.09252 | 25662 ft | 468 kts | 95° |
| 2026-04-21 04:50 | 33.74762 | -117.05325 | 25934 ft | 470 kts | 95° |
| 2026-04-21 04:50 | 33.74683 | -117.01395 | 26185 ft | 472 kts | 95° |
| 2026-04-21 04:50 | 33.74602 | -116.97443 | 26444 ft | 474 kts | 95° |
| 2026-04-21 04:50 | 33.74519 | -116.93522 | 26667 ft | 476 kts | 95° |
| 2026-04-21 04:51 | 33.74432 | -116.89539 | 26891 ft | 477 kts | 95° |
| 2026-04-21 04:51 | 33.74344 | -116.85551 | 27082 ft | 479 kts | 95° |
| 2026-04-21 04:51 | 33.74254 | -116.81544 | 27292 ft | 480 kts | 95° |
| 2026-04-21 04:51 | 33.74161 | -116.77525 | 27496 ft | 482 kts | 95° |
| 2026-04-21 04:52 | 33.74068 | -116.73493 | 27673 ft | 484 kts | 95° |
| 2026-04-21 04:52 | 33.73974 | -116.69447 | 27843 ft | 485 kts | 95° |
| 2026-04-21 04:52 | 33.73879 | -116.65389 | 28061 ft | 485 kts | 95° |
| 2026-04-21 04:52 | 33.73782 | -116.61337 | 28264 ft | 484 kts | 95° |
| 2026-04-21 04:53 | 33.73683 | -116.57284 | 28425 ft | 485 kts | 95° |
| 2026-04-21 04:53 | 33.73582 | -116.53247 | 28632 ft | 484 kts | 95° |
| 2026-04-21 04:53 | 33.73478 | -116.49213 | 28922 ft | 482 kts | 95° |
| 2026-04-21 04:53 | 33.73373 | -116.45197 | 29204 ft | 481 kts | 95° |
| 2026-04-21 04:54 | 33.73268 | -116.41184 | 29473 ft | 481 kts | 95° |
| 2026-04-21 04:54 | 33.73162 | -116.37169 | 29712 ft | 480 kts | 95° |
| 2026-04-21 04:54 | 33.73056 | -116.33163 | 29965 ft | 480 kts | 95° |
| 2026-04-21 04:54 | 33.72952 | -116.29211 | 30182 ft | 480 kts | 95° |
| 2026-04-21 04:55 | 33.72846 | -116.25202 | 30358 ft | 480 kts | 95° |
| 2026-04-21 04:55 | 33.72740 | -116.21198 | 30585 ft | 479 kts | 95° |
| 2026-04-21 04:55 | 33.72631 | -116.17200 | 30794 ft | 479 kts | 95° |
| 2026-04-21 04:55 | 33.72518 | -116.13210 | 30987 ft | 479 kts | 95° |
| 2026-04-21 04:56 | 33.72529 | -116.09196 | 31178 ft | 481 kts | 88° |
| 2026-04-21 04:56 | 33.73022 | -116.05209 | 31359 ft | 485 kts | 79° |
| 2026-04-21 04:56 | 33.73995 | -116.01326 | 31562 ft | 487 kts | 73° |
| 2026-04-21 04:56 | 33.75079 | -115.97470 | 31750 ft | 487 kts | 73° |
| 2026-04-21 04:57 | 33.76159 | -115.93606 | 31938 ft | 487 kts | 73° |
| 2026-04-21 04:57 | 33.76872 | -115.91047 | 32069 ft | 487 kts | 73° |
| 2026-04-21 04:57 | 33.77944 | -115.87189 | 32272 ft | 487 kts | 73° |
| 2026-04-21 04:57 | 33.79360 | -115.82067 | 32515 ft | 487 kts | 73° |
| 2026-04-21 04:58 | 33.80426 | -115.78205 | 32702 ft | 487 kts | 73° |
| 2026-04-21 04:58 | 33.81491 | -115.74349 | 32884 ft | 487 kts | 73° |
| 2026-04-21 04:58 | 33.82558 | -115.70482 | 33066 ft | 487 kts | 73° |
| 2026-04-21 04:58 | 33.83280 | -115.67862 | 33189 ft | 487 kts | 73° |
| 2026-04-21 04:59 | 33.84344 | -115.63992 | 33353 ft | 487 kts | 73° |
| 2026-04-21 04:59 | 33.85407 | -115.60123 | 33555 ft | 487 kts | 73° |
| 2026-04-21 04:59 | 33.86468 | -115.56259 | 33749 ft | 487 kts | 73° |
| 2026-04-21 04:59 | 33.87526 | -115.52391 | 33920 ft | 487 kts | 73° |
| 2026-04-21 05:00 | 33.88568 | -115.48572 | 34070 ft | 487 kts | 73° |
| 2026-04-21 05:00 | 33.89639 | -115.44644 | 34227 ft | 487 kts | 73° |
| 2026-04-21 05:00 | 33.91732 | -115.36956 | 34552 ft | 486 kts | 73° |
| 2026-04-21 05:01 | 33.92785 | -115.33082 | 34723 ft | 486 kts | 73° |
| 2026-04-21 05:01 | 33.93833 | -115.29217 | 34840 ft | 487 kts | 73° |
| 2026-04-21 05:01 | 33.95944 | -115.21420 | 34866 ft | 493 kts | 73° |
| 2026-04-21 05:02 | 33.98081 | -115.13526 | 34874 ft | 499 kts | 73° |
| 2026-04-21 05:02 | 34.00219 | -115.05604 | 34873 ft | 488 kts | 73° |
| 2026-04-21 05:03 | 34.02302 | -114.97847 | 34879 ft | 488 kts | 74° |
| 2026-04-21 05:03 | 34.04388 | -114.90007 | 34880 ft | 494 kts | 74° |
| 2026-04-21 05:04 | 34.06504 | -114.82077 | 34883 ft | 499 kts | 74° |
| 2026-04-21 05:04 | 34.08644 | -114.74055 | 34937 ft | 503 kts | 74° |
| 2026-04-21 05:05 | 34.09698 | -114.70110 | 35266 ft | 499 kts | 74° |
| 2026-04-21 05:05 | 34.10758 | -114.66141 | 35200 ft | 492 kts | 74° |
| 2026-04-21 05:05 | 34.11791 | -114.62241 | 34835 ft | 482 kts | 73° |
| 2026-04-21 05:05 | 34.12842 | -114.58459 | 34828 ft | 471 kts | 73° |
| 2026-04-21 05:06 | 34.15030 | -114.50957 | 34829 ft | 475 kts | 72° |
| 2026-04-21 05:06 | 34.17217 | -114.43419 | 34829 ft | 476 kts | 73° |
| 2026-04-21 05:07 | 34.19346 | -114.35850 | 34823 ft | 476 kts | 73° |
| 2026-04-21 05:07 | 34.21454 | -114.28256 | 34826 ft | 477 kts | 73° |
| 2026-04-21 05:08 | 34.23574 | -114.20652 | 34829 ft | 477 kts | 73° |
| 2026-04-21 05:08 | 34.25697 | -114.13061 | 34831 ft | 477 kts | 73° |
| 2026-04-21 05:09 | 34.27814 | -114.05463 | 34824 ft | 477 kts | 73° |
| 2026-04-21 05:09 | 34.29906 | -113.97872 | 34842 ft | 479 kts | 73° |
| 2026-04-21 05:10 | 34.32014 | -113.90229 | 34842 ft | 479 kts | 73° |
| 2026-04-21 05:10 | 34.34127 | -113.82587 | 34843 ft | 479 kts | 73° |
| 2026-04-21 05:11 | 34.36230 | -113.74952 | 34844 ft | 478 kts | 73° |
| 2026-04-21 05:11 | 34.38322 | -113.67335 | 34847 ft | 476 kts | 73° |
| 2026-04-21 05:12 | 34.40399 | -113.59713 | 34856 ft | 476 kts | 73° |
| 2026-04-21 05:12 | 34.42470 | -113.52100 | 34856 ft | 476 kts | 73° |
| 2026-04-21 05:13 | 34.44527 | -113.44530 | 34861 ft | 475 kts | 73° |
| 2026-04-21 05:13 | 34.46586 | -113.36918 | 34861 ft | 473 kts | 73° |
| 2026-04-21 05:14 | 34.48643 | -113.29338 | 34872 ft | 473 kts | 73° |
| 2026-04-21 05:14 | 34.50691 | -113.21761 | 34889 ft | 473 kts | 73° |
| 2026-04-21 05:15 | 34.52726 | -113.14172 | 34886 ft | 473 kts | 73° |
| 2026-04-21 05:15 | 34.54743 | -113.06633 | 34906 ft | 473 kts | 73° |
| 2026-04-21 05:16 | 34.56773 | -112.99042 | 34903 ft | 473 kts | 73° |
| 2026-04-21 05:16 | 34.58797 | -112.91447 | 34914 ft | 473 kts | 73° |
| 2026-04-21 05:17 | 34.60815 | -112.83845 | 34924 ft | 473 kts | 73° |
| 2026-04-21 05:17 | 34.62826 | -112.76247 | 34921 ft | 473 kts | 73° |
| 2026-04-21 05:18 | 34.64836 | -112.68645 | 34933 ft | 473 kts | 73° |
| 2026-04-21 05:18 | 34.66853 | -112.61026 | 34933 ft | 473 kts | 73° |
| 2026-04-21 05:19 | 34.68855 | -112.53409 | 34937 ft | 473 kts | 73° |
| 2026-04-21 05:19 | 34.69848 | -112.49600 | 35128 ft | 473 kts | 73° |
| 2026-04-21 05:19 | 34.70814 | -112.45830 | 35128 ft | 473 kts | 74° |
| 2026-04-21 05:20 | 34.72618 | -112.38148 | 35128 ft | 473 kts | 76° |
| 2026-04-21 05:20 | 34.74332 | -112.30430 | 35101 ft | 473 kts | 76° |
| 2026-04-21 05:21 | 34.76064 | -112.22718 | 35059 ft | 473 kts | 76° |
| 2026-04-21 05:21 | 34.77829 | -112.15014 | 35024 ft | 473 kts | 75° |
| 2026-04-21 05:22 | 34.79599 | -112.07314 | 35032 ft | 472 kts | 75° |
| 2026-04-21 05:22 | 34.81359 | -111.99617 | 35073 ft | 472 kts | 76° |
| 2026-04-21 05:23 | 34.83098 | -111.91918 | 35109 ft | 472 kts | 76° |
| 2026-04-21 05:23 | 34.84835 | -111.84213 | 35118 ft | 472 kts | 76° |
| 2026-04-21 05:24 | 34.86562 | -111.76503 | 35116 ft | 472 kts | 76° |
| 2026-04-21 05:24 | 34.88281 | -111.68828 | 35118 ft | 472 kts | 76° |
| 2026-04-21 05:25 | 34.90005 | -111.61123 | 35088 ft | 472 kts | 76° |
| 2026-04-21 05:25 | 34.91724 | -111.53403 | 34990 ft | 472 kts | 76° |
| 2026-04-21 05:26 | 34.93439 | -111.45680 | 34993 ft | 472 kts | 76° |
| 2026-04-21 05:26 | 34.95148 | -111.37963 | 34987 ft | 471 kts | 76° |
| 2026-04-21 05:27 | 34.96854 | -111.30239 | 34985 ft | 472 kts | 76° |
| 2026-04-21 05:27 | 34.98558 | -111.22520 | 34973 ft | 472 kts | 76° |
| 2026-04-21 05:28 | 35.00248 | -111.14788 | 34979 ft | 472 kts | 76° |
| 2026-04-21 05:28 | 35.01929 | -111.07089 | 35002 ft | 473 kts | 76° |
| 2026-04-21 05:29 | 35.03622 | -110.99322 | 35027 ft | 473 kts | 76° |
| 2026-04-21 05:29 | 35.05304 | -110.91559 | 35067 ft | 473 kts | 76° |
| 2026-04-21 05:30 | 35.06984 | -110.83787 | 35099 ft | 473 kts | 76° |
| 2026-04-21 05:30 | 35.08662 | -110.76030 | 35109 ft | 472 kts | 75° |
| 2026-04-21 05:31 | 35.10323 | -110.68288 | 35109 ft | 471 kts | 75° |
| 2026-04-21 05:31 | 35.11961 | -110.60594 | 34914 ft | 471 kts | 75° |
| 2026-04-21 05:32 | 35.13612 | -110.52846 | 34923 ft | 471 kts | 75° |
| 2026-04-21 05:32 | 35.15263 | -110.45095 | 34924 ft | 471 kts | 75° |
| 2026-04-21 05:33 | 35.16902 | -110.37374 | 34920 ft | 469 kts | 75° |
| 2026-04-21 05:33 | 35.18533 | -110.29661 | 34913 ft | 469 kts | 75° |
| 2026-04-21 05:34 | 35.20154 | -110.21942 | 34916 ft | 469 kts | 75° |
| 2026-04-21 05:34 | 35.21768 | -110.14214 | 34909 ft | 469 kts | 75° |
| 2026-04-21 05:35 | 35.23373 | -110.06520 | 34905 ft | 466 kts | 75° |
| 2026-04-21 05:35 | 35.24979 | -109.98846 | 34902 ft | 465 kts | 74° |
| 2026-04-21 05:36 | 35.26577 | -109.91176 | 34903 ft | 465 kts | 75° |
| 2026-04-21 05:36 | 35.28163 | -109.83501 | 34902 ft | 465 kts | 75° |
| 2026-04-21 05:37 | 35.29735 | -109.75877 | 34901 ft | 464 kts | 74° |
| 2026-04-21 05:37 | 35.31312 | -109.68181 | 34903 ft | 463 kts | 74° |
| 2026-04-21 05:38 | 35.32870 | -109.60572 | 34905 ft | 463 kts | 74° |
| 2026-04-21 05:38 | 35.34428 | -109.52931 | 34905 ft | 462 kts | 74° |
| 2026-04-21 05:39 | 35.35980 | -109.45277 | 34921 ft | 462 kts | 74° |
| 2026-04-21 05:39 | 35.37528 | -109.37651 | 34911 ft | 460 kts | 74° |
| 2026-04-21 05:40 | 35.39064 | -109.30042 | 34951 ft | 460 kts | 74° |
| 2026-04-21 05:40 | 35.40597 | -109.22433 | 35002 ft | 460 kts | 74° |
| 2026-04-21 05:41 | 35.42124 | -109.14815 | 35042 ft | 460 kts | 74° |
| 2026-04-21 05:41 | 35.43646 | -109.07200 | 35058 ft | 458 kts | 73° |
| 2026-04-21 05:42 | 35.45147 | -108.99659 | 35106 ft | 458 kts | 74° |
| 2026-04-21 05:42 | 35.46654 | -108.92063 | 35173 ft | 458 kts | 74° |
| 2026-04-21 05:43 | 35.48207 | -108.84495 | 35200 ft | 457 kts | 71° |
| 2026-04-21 05:43 | 35.50184 | -108.77081 | 35217 ft | 455 kts | 68° |
| 2026-04-21 05:44 | 35.50893 | -108.74664 | 34913 ft | 454 kts | 68° |
| 2026-04-21 05:44 | 35.51969 | -108.71028 | 34910 ft | 453 kts | 68° |
| 2026-04-21 05:44 | 35.54384 | -108.62536 | 34925 ft | 453 kts | 69° |
| 2026-04-21 05:45 | 35.56044 | -108.56382 | 34932 ft | 453 kts | 69° |
| 2026-04-21 05:45 | 35.57993 | -108.49061 | 34933 ft | 453 kts | 69° |
| 2026-04-21 05:46 | 35.59961 | -108.41708 | 34952 ft | 453 kts | 69° |
| 2026-04-21 05:46 | 35.61946 | -108.34337 | 34943 ft | 454 kts | 69° |
| 2026-04-21 05:47 | 35.63928 | -108.26965 | 34947 ft | 454 kts | 69° |
| 2026-04-21 05:47 | 35.65902 | -108.19582 | 34946 ft | 454 kts | 70° |
| 2026-04-21 05:48 | 35.67869 | -108.12204 | 34955 ft | 454 kts | 70° |
| 2026-04-21 05:48 | 35.69838 | -108.04807 | 34954 ft | 454 kts | 70° |
| 2026-04-21 05:49 | 35.71793 | -107.97408 | 34965 ft | 454 kts | 70° |
| 2026-04-21 05:49 | 35.73747 | -107.90014 | 34966 ft | 454 kts | 70° |
| 2026-04-21 05:50 | 35.75701 | -107.82622 | 34976 ft | 454 kts | 70° |
| 2026-04-21 05:50 | 35.77646 | -107.75225 | 34976 ft | 454 kts | 70° |
| 2026-04-21 05:51 | 35.79578 | -107.67854 | 34983 ft | 456 kts | 70° |
| 2026-04-21 05:51 | 35.81530 | -107.60397 | 34995 ft | 457 kts | 70° |
| 2026-04-21 05:52 | 35.83467 | -107.52945 | 34995 ft | 456 kts | 70° |
| 2026-04-21 05:52 | 35.85408 | -107.45496 | 35011 ft | 456 kts | 70° |
| 2026-04-21 05:53 | 35.87346 | -107.38038 | 35016 ft | 457 kts | 70° |
| 2026-04-21 05:53 | 35.89289 | -107.30541 | 35018 ft | 460 kts | 71° |
| 2026-04-21 05:54 | 35.91224 | -107.23016 | 35011 ft | 460 kts | 71° |
| 2026-04-21 05:54 | 35.93152 | -107.15488 | 35021 ft | 460 kts | 71° |
| 2026-04-21 05:55 | 35.95078 | -107.07959 | 35019 ft | 460 kts | 71° |
| 2026-04-21 05:55 | 35.97004 | -107.00415 | 35015 ft | 461 kts | 71° |
| 2026-04-21 05:56 | 35.98922 | -106.92902 | 35023 ft | 462 kts | 71° |
| 2026-04-21 05:56 | 36.00845 | -106.85323 | 35025 ft | 462 kts | 71° |
| 2026-04-21 05:57 | 36.02766 | -106.77741 | 35027 ft | 462 kts | 71° |
| 2026-04-21 05:57 | 36.04684 | -106.70150 | 35024 ft | 462 kts | 71° |
| 2026-04-21 05:58 | 36.06594 | -106.62562 | 35032 ft | 463 kts | 71° |
| 2026-04-21 05:58 | 36.08500 | -106.54959 | 35056 ft | 462 kts | 71° |
| 2026-04-21 05:59 | 36.10395 | -106.47365 | 35063 ft | 462 kts | 71° |
| 2026-04-21 06:00 | 36.13225 | -106.36001 | 35077 ft | 462 kts | 71° |
| 2026-04-21 06:00 | 36.15115 | -106.28387 | 35060 ft | 462 kts | 72° |
| 2026-04-21 06:01 | 36.17003 | -106.20776 | 35049 ft | 462 kts | 72° |
| 2026-04-21 06:01 | 36.18881 | -106.13168 | 35016 ft | 462 kts | 72° |
| 2026-04-21 06:02 | 36.20752 | -106.05553 | 34993 ft | 462 kts | 72° |
| 2026-04-21 06:02 | 36.22612 | -105.97977 | 35000 ft | 463 kts | 72° |
| 2026-04-21 06:03 | 36.24480 | -105.90346 | 35000 ft | 463 kts | 72° |
| 2026-04-21 06:03 | 36.26345 | -105.82695 | 35001 ft | 463 kts | 72° |
| 2026-04-21 06:04 | 36.28203 | -105.75054 | 35014 ft | 463 kts | 72° |
| 2026-04-21 06:04 | 36.30060 | -105.67392 | 35039 ft | 463 kts | 72° |
| 2026-04-21 06:05 | 36.31908 | -105.59743 | 35111 ft | 462 kts | 72° |
| 2026-04-21 06:05 | 36.33743 | -105.52145 | 35172 ft | 462 kts | 72° |
| 2026-04-21 06:06 | 36.35575 | -105.44508 | 35233 ft | 462 kts | 72° |
| 2026-04-21 06:06 | 36.37399 | -105.36864 | 35284 ft | 462 kts | 72° |
| 2026-04-21 06:07 | 36.39224 | -105.29216 | 35284 ft | 462 kts | 72° |
| 2026-04-21 06:07 | 36.41038 | -105.21580 | 35282 ft | 461 kts | 72° |
| 2026-04-21 06:08 | 36.42853 | -105.13957 | 35248 ft | 460 kts | 72° |
| 2026-04-21 06:08 | 36.44655 | -105.06314 | 35176 ft | 461 kts | 72° |
| 2026-04-21 06:09 | 36.46446 | -104.98676 | 34976 ft | 461 kts | 72° |
| 2026-04-21 06:09 | 36.48224 | -104.91076 | 34974 ft | 460 kts | 72° |
| 2026-04-21 06:10 | 36.50469 | -104.83664 | 34975 ft | 457 kts | 63° |
| 2026-04-21 06:10 | 36.53186 | -104.76506 | 34976 ft | 458 kts | 63° |
| 2026-04-21 06:11 | 36.55883 | -104.69337 | 34978 ft | 458 kts | 63° |
| 2026-04-21 06:11 | 36.58571 | -104.62146 | 35092 ft | 459 kts | 63° |
| 2026-04-21 06:12 | 36.61275 | -104.54933 | 35124 ft | 460 kts | 63° |
| 2026-04-21 06:12 | 36.63976 | -104.47711 | 35145 ft | 460 kts | 63° |
| 2026-04-21 06:13 | 36.66674 | -104.40489 | 35142 ft | 460 kts | 64° |
| 2026-04-21 06:13 | 36.69364 | -104.33258 | 35119 ft | 460 kts | 64° |
| 2026-04-21 06:14 | 36.72043 | -104.26025 | 35089 ft | 460 kts | 64° |
| 2026-04-21 06:14 | 36.74703 | -104.18828 | 35047 ft | 460 kts | 64° |
| 2026-04-21 06:15 | 36.77389 | -104.11569 | 35007 ft | 461 kts | 63° |
| 2026-04-21 06:15 | 36.80072 | -104.04308 | 34939 ft | 461 kts | 64° |
| 2026-04-21 06:16 | 36.82738 | -103.97036 | 34940 ft | 461 kts | 64° |
| 2026-04-21 06:16 | 36.85399 | -103.89762 | 34932 ft | 461 kts | 64° |
| 2026-04-21 06:17 | 36.88067 | -103.82483 | 34933 ft | 462 kts | 64° |
| 2026-04-21 06:17 | 36.90736 | -103.75175 | 34933 ft | 463 kts | 64° |
| 2026-04-21 06:18 | 36.93409 | -103.67845 | 34920 ft | 464 kts | 64° |
| 2026-04-21 06:18 | 36.96081 | -103.60503 | 34928 ft | 464 kts | 64° |
| 2026-04-21 06:19 | 36.98733 | -103.53187 | 34924 ft | 464 kts | 64° |
| 2026-04-21 06:19 | 37.01391 | -103.45819 | 34940 ft | 463 kts | 64° |
| 2026-04-21 06:20 | 37.04042 | -103.38475 | 34938 ft | 463 kts | 64° |
| 2026-04-21 06:20 | 37.06693 | -103.31125 | 34934 ft | 463 kts | 64° |
| 2026-04-21 06:21 | 37.09330 | -103.23775 | 34938 ft | 463 kts | 64° |
| 2026-04-21 06:21 | 37.11963 | -103.16405 | 34924 ft | 463 kts | 64° |
| 2026-04-21 06:22 | 37.14588 | -103.09039 | 34936 ft | 462 kts | 64° |
| 2026-04-21 06:22 | 37.17206 | -103.01686 | 34915 ft | 461 kts | 64° |
| 2026-04-21 06:23 | 37.19802 | -102.94384 | 34919 ft | 461 kts | 63° |
| 2026-04-21 06:23 | 37.22420 | -102.87027 | 34913 ft | 462 kts | 64° |
| 2026-04-21 06:24 | 37.25024 | -102.79666 | 34899 ft | 461 kts | 64° |
| 2026-04-21 06:24 | 37.27625 | -102.72283 | 34906 ft | 463 kts | 64° |
| 2026-04-21 06:25 | 37.30238 | -102.64874 | 34901 ft | 465 kts | 63° |
| 2026-04-21 06:25 | 37.32850 | -102.57445 | 34904 ft | 465 kts | 64° |
| 2026-04-21 06:26 | 37.35452 | -102.50005 | 34892 ft | 465 kts | 64° |
| 2026-04-21 06:26 | 37.38040 | -102.42599 | 34898 ft | 465 kts | 64° |
| 2026-04-21 06:27 | 37.40637 | -102.35143 | 34896 ft | 465 kts | 65° |
| 2026-04-21 06:27 | 37.43233 | -102.27672 | 34893 ft | 465 kts | 64° |
| 2026-04-21 06:28 | 37.45823 | -102.20205 | 34889 ft | 466 kts | 65° |
| 2026-04-21 06:28 | 37.48406 | -102.12738 | 34917 ft | 465 kts | 64° |
| 2026-04-21 06:29 | 37.50991 | -102.05259 | 34940 ft | 465 kts | 65° |
| 2026-04-21 06:29 | 37.53565 | -101.97765 | 34975 ft | 467 kts | 65° |
| 2026-04-21 06:30 | 37.56142 | -101.90252 | 35006 ft | 467 kts | 66° |
| 2026-04-21 06:30 | 37.58698 | -101.82792 | 35019 ft | 466 kts | 65° |
| 2026-04-21 06:31 | 37.61221 | -101.75345 | 35021 ft | 457 kts | 65° |
| 2026-04-21 06:31 | 37.63732 | -101.67939 | 35035 ft | 463 kts | 65° |
| 2026-04-21 06:32 | 37.66308 | -101.60443 | 35013 ft | 467 kts | 64° |
| 2026-04-21 06:32 | 37.68458 | -101.54162 | 34996 ft | 468 kts | 65° |
| 2026-04-21 06:33 | 37.71019 | -101.46592 | 35003 ft | 468 kts | 65° |
| 2026-04-21 06:33 | 37.73570 | -101.39025 | 35005 ft | 469 kts | 65° |
| 2026-04-21 06:34 | 37.76106 | -101.31441 | 35052 ft | 468 kts | 65° |
| 2026-04-21 06:34 | 37.78654 | -101.23851 | 34979 ft | 470 kts | 65° |
| 2026-04-21 06:35 | 37.81201 | -101.16245 | 34983 ft | 469 kts | 65° |
| 2026-04-21 06:35 | 37.83722 | -101.08669 | 35007 ft | 470 kts | 65° |
| 2026-04-21 06:36 | 37.86273 | -101.01039 | 35030 ft | 471 kts | 66° |
| 2026-04-21 06:36 | 37.88815 | -100.93395 | 35026 ft | 470 kts | 65° |
| 2026-04-21 06:36 | 37.90075 | -100.89589 | 34481 ft | 468 kts | 65° |
| 2026-04-21 06:37 | 37.91337 | -100.85784 | 33738 ft | 469 kts | 66° |
| 2026-04-21 06:37 | 37.92597 | -100.81983 | 33225 ft | 466 kts | 66° |
| 2026-04-21 06:37 | 37.93856 | -100.78177 | 33034 ft | 468 kts | 65° |
| 2026-04-21 06:38 | 37.96373 | -100.70543 | 33082 ft | 471 kts | 66° |
| 2026-04-21 06:38 | 37.98878 | -100.62918 | 32996 ft | 471 kts | 66° |
| 2026-04-21 06:39 | 38.01377 | -100.55296 | 32997 ft | 471 kts | 66° |
| 2026-04-21 06:39 | 38.03893 | -100.47586 | 33239 ft | 473 kts | 68° |
| 2026-04-21 06:39 | 38.05160 | -100.43706 | 32704 ft | 476 kts | 67° |
| 2026-04-21 06:40 | 38.06403 | -100.39894 | 32884 ft | 472 kts | 66° |
| 2026-04-21 06:40 | 38.07673 | -100.35989 | 33007 ft | 473 kts | 66° |
| 2026-04-21 06:40 | 38.08910 | -100.32170 | 32994 ft | 472 kts | 66° |
| 2026-04-21 06:41 | 38.11414 | -100.24442 | 32999 ft | 472 kts | 66° |
| 2026-04-21 06:41 | 38.13914 | -100.16737 | 33000 ft | 472 kts | 66° |
| 2026-04-21 06:42 | 38.16405 | -100.09015 | 33000 ft | 472 kts | 66° |
| 2026-04-21 06:42 | 38.18896 | -100.01276 | 33032 ft | 473 kts | 66° |
| 2026-04-21 06:42 | 38.20144 | -99.97401 | 33266 ft | 473 kts | 67° |
| 2026-04-21 06:43 | 38.21371 | -99.93580 | 33499 ft | 473 kts | 66° |
| 2026-04-21 06:43 | 38.22623 | -99.89655 | 33765 ft | 472 kts | 66° |
| 2026-04-21 06:43 | 38.23854 | -99.85787 | 33999 ft | 472 kts | 66° |
| 2026-04-21 06:43 | 38.25085 | -99.81925 | 34193 ft | 472 kts | 67° |
| 2026-04-21 06:44 | 38.26306 | -99.78097 | 34389 ft | 472 kts | 66° |
| 2026-04-21 06:44 | 38.27538 | -99.74232 | 34560 ft | 472 kts | 66° |
| 2026-04-21 06:44 | 38.28772 | -99.70357 | 34763 ft | 472 kts | 67° |
| 2026-04-21 06:44 | 38.30006 | -99.66479 | 34943 ft | 472 kts | 66° |
| 2026-04-21 06:45 | 38.31237 | -99.62598 | 35003 ft | 473 kts | 66° |
| 2026-04-21 06:45 | 38.33696 | -99.54831 | 35007 ft | 472 kts | 67° |
| 2026-04-21 06:46 | 38.36149 | -99.47048 | 35017 ft | 473 kts | 66° |
| 2026-04-21 06:46 | 38.38597 | -99.39269 | 35012 ft | 473 kts | 67° |
| 2026-04-21 06:47 | 38.41036 | -99.31494 | 35032 ft | 472 kts | 66° |
| 2026-04-21 06:47 | 38.43455 | -99.23762 | 35043 ft | 472 kts | 66° |
| 2026-04-21 06:48 | 38.45896 | -99.15946 | 35044 ft | 473 kts | 66° |
| 2026-04-21 06:48 | 38.48323 | -99.08144 | 35065 ft | 472 kts | 67° |
| 2026-04-21 06:49 | 38.50746 | -99.00342 | 35058 ft | 473 kts | 66° |
| 2026-04-21 06:49 | 38.53166 | -98.92529 | 35061 ft | 473 kts | 67° |
| 2026-04-21 06:50 | 38.55578 | -98.84711 | 35053 ft | 473 kts | 67° |
| 2026-04-21 06:50 | 38.57978 | -98.76928 | 35045 ft | 474 kts | 67° |
| 2026-04-21 06:51 | 38.60398 | -98.69036 | 35040 ft | 475 kts | 67° |
| 2026-04-21 06:51 | 38.62785 | -98.61212 | 35014 ft | 476 kts | 67° |
| 2026-04-21 06:52 | 38.65189 | -98.53325 | 35015 ft | 475 kts | 67° |
| 2026-04-21 06:52 | 38.67598 | -98.45431 | 35015 ft | 475 kts | 67° |
| 2026-04-21 06:53 | 38.69996 | -98.37544 | 35021 ft | 476 kts | 67° |
| 2026-04-21 06:53 | 38.72380 | -98.29646 | 35020 ft | 476 kts | 67° |
| 2026-04-21 06:54 | 38.74764 | -98.21738 | 35021 ft | 476 kts | 67° |
| 2026-04-21 06:54 | 38.77137 | -98.13825 | 35021 ft | 476 kts | 67° |
| 2026-04-21 06:55 | 38.79496 | -98.05946 | 35041 ft | 476 kts | 67° |
| 2026-04-21 06:55 | 38.81879 | -97.98032 | 35045 ft | 476 kts | 67° |
| 2026-04-21 06:56 | 38.84254 | -97.90095 | 35046 ft | 477 kts | 68° |
| 2026-04-21 06:56 | 38.86612 | -97.82129 | 35061 ft | 478 kts | 68° |
| 2026-04-21 06:57 | 38.88965 | -97.74158 | 35068 ft | 478 kts | 68° |
| 2026-04-21 06:57 | 38.91312 | -97.66184 | 35067 ft | 478 kts | 68° |
| 2026-04-21 06:58 | 38.93624 | -97.58181 | 35076 ft | 478 kts | 69° |
| 2026-04-21 06:58 | 38.95783 | -97.50083 | 35058 ft | 480 kts | 70° |
| 2026-04-21 06:59 | 38.97887 | -97.41945 | 35032 ft | 480 kts | 70° |
| 2026-04-21 06:59 | 39.00008 | -97.33810 | 35032 ft | 480 kts | 70° |
| 2026-04-21 07:00 | 39.02144 | -97.25738 | 35036 ft | 480 kts | 69° |
| 2026-04-21 07:00 | 39.04289 | -97.17602 | 35044 ft | 480 kts | 70° |
| 2026-04-21 07:01 | 39.06408 | -97.09460 | 35056 ft | 480 kts | 70° |
| 2026-04-21 07:01 | 39.09596 | -96.97243 | 35070 ft | 480 kts | 70° |
| 2026-04-21 07:02 | 39.11707 | -96.89097 | 35077 ft | 480 kts | 70° |
| 2026-04-21 07:02 | 39.13816 | -96.80933 | 35081 ft | 480 kts | 70° |
| 2026-04-21 07:03 | 39.15906 | -96.72820 | 35096 ft | 480 kts | 70° |
| 2026-04-21 07:03 | 39.18013 | -96.64627 | 35082 ft | 482 kts | 70° |
| 2026-04-21 07:04 | 39.20109 | -96.56402 | 35080 ft | 482 kts | 70° |
| 2026-04-21 07:04 | 39.22204 | -96.48169 | 35057 ft | 482 kts | 70° |
| 2026-04-21 07:05 | 39.24297 | -96.39943 | 35057 ft | 483 kts | 70° |
| 2026-04-21 07:05 | 39.26376 | -96.31763 | 35060 ft | 483 kts | 70° |
| 2026-04-21 07:06 | 39.28459 | -96.23510 | 35065 ft | 483 kts | 70° |
| 2026-04-21 07:06 | 39.30535 | -96.15256 | 35065 ft | 483 kts | 70° |
| 2026-04-21 07:07 | 39.32614 | -96.07001 | 35075 ft | 483 kts | 70° |
| 2026-04-21 07:07 | 39.34681 | -95.98732 | 35063 ft | 484 kts | 70° |
| 2026-04-21 07:08 | 39.36742 | -95.90446 | 35068 ft | 484 kts | 71° |
| 2026-04-21 07:08 | 39.38794 | -95.82157 | 35068 ft | 484 kts | 71° |
| 2026-04-21 07:09 | 39.40847 | -95.73860 | 35074 ft | 484 kts | 71° |
| 2026-04-21 07:09 | 39.42881 | -95.65612 | 35072 ft | 484 kts | 71° |
| 2026-04-21 07:10 | 39.44923 | -95.57307 | 35085 ft | 485 kts | 70° |
| 2026-04-21 07:10 | 39.46962 | -95.48981 | 35070 ft | 486 kts | 71° |
| 2026-04-21 07:11 | 39.48991 | -95.40633 | 35071 ft | 486 kts | 71° |
| 2026-04-21 07:11 | 39.51026 | -95.32289 | 35079 ft | 486 kts | 71° |
| 2026-04-21 07:12 | 39.53057 | -95.23933 | 35076 ft | 486 kts | 71° |
| 2026-04-21 07:12 | 39.55076 | -95.15565 | 35080 ft | 486 kts | 71° |
| 2026-04-21 07:13 | 39.57067 | -95.07265 | 35074 ft | 485 kts | 71° |
| 2026-04-21 07:13 | 39.59063 | -94.98917 | 35078 ft | 484 kts | 71° |
| 2026-04-21 07:14 | 39.61056 | -94.90575 | 35078 ft | 485 kts | 71° |
| 2026-04-21 07:14 | 39.63052 | -94.82215 | 35080 ft | 485 kts | 71° |
| 2026-04-21 07:15 | 39.65035 | -94.73848 | 35085 ft | 485 kts | 71° |
| 2026-04-21 07:15 | 39.67009 | -94.65467 | 35102 ft | 486 kts | 71° |
| 2026-04-21 07:16 | 39.68982 | -94.57072 | 35130 ft | 486 kts | 71° |
| 2026-04-21 07:16 | 39.70940 | -94.48724 | 35148 ft | 486 kts | 71° |
| 2026-04-21 07:17 | 39.72908 | -94.40318 | 35180 ft | 486 kts | 71° |
| 2026-04-21 07:17 | 39.74870 | -94.31906 | 35174 ft | 486 kts | 71° |
| 2026-04-21 07:18 | 39.76824 | -94.23496 | 35169 ft | 486 kts | 71° |
| 2026-04-21 07:18 | 39.78768 | -94.15064 | 35165 ft | 487 kts | 71° |
| 2026-04-21 07:19 | 39.80711 | -94.06619 | 35151 ft | 487 kts | 71° |
| 2026-04-21 07:19 | 39.82648 | -93.98176 | 35136 ft | 487 kts | 71° |
| 2026-04-21 07:20 | 39.84585 | -93.89718 | 35126 ft | 487 kts | 71° |
| 2026-04-21 07:20 | 39.86509 | -93.81254 | 35125 ft | 487 kts | 71° |
| 2026-04-21 07:21 | 39.88408 | -93.72847 | 35130 ft | 487 kts | 71° |
| 2026-04-21 07:21 | 39.90321 | -93.64397 | 35125 ft | 487 kts | 71° |
| 2026-04-21 07:22 | 39.92233 | -93.55921 | 35121 ft | 487 kts | 71° |
| 2026-04-21 07:22 | 39.93811 | -93.48880 | 35128 ft | 487 kts | 71° |
| 2026-04-21 07:23 | 39.95711 | -93.40399 | 35128 ft | 487 kts | 71° |
| 2026-04-21 07:23 | 39.97600 | -93.31917 | 35136 ft | 487 kts | 71° |
| 2026-04-21 07:24 | 39.99481 | -93.23423 | 35136 ft | 487 kts | 71° |
| 2026-04-21 07:24 | 40.01358 | -93.14925 | 35131 ft | 487 kts | 71° |
| 2026-04-21 07:25 | 40.03218 | -93.06484 | 35138 ft | 487 kts | 71° |
| 2026-04-21 07:25 | 40.05083 | -92.97981 | 35149 ft | 487 kts | 71° |
| 2026-04-21 07:26 | 40.06943 | -92.89463 | 35142 ft | 488 kts | 71° |
| 2026-04-21 07:26 | 40.08795 | -92.80950 | 35139 ft | 488 kts | 71° |
| 2026-04-21 07:27 | 40.10648 | -92.72415 | 35139 ft | 487 kts | 71° |
| 2026-04-21 07:27 | 40.12493 | -92.63890 | 35141 ft | 488 kts | 71° |
| 2026-04-21 07:28 | 40.14792 | -92.55607 | 35137 ft | 483 kts | 60° |
| 2026-04-21 07:28 | 40.17664 | -92.47737 | 35138 ft | 483 kts | 61° |
| 2026-04-21 07:29 | 40.20542 | -92.39794 | 35137 ft | 483 kts | 61° |
| 2026-04-21 07:29 | 40.23407 | -92.31826 | 35157 ft | 483 kts | 61° |
| 2026-04-21 07:30 | 40.26265 | -92.23856 | 35145 ft | 484 kts | 61° |
| 2026-04-21 07:30 | 40.29128 | -92.15866 | 35132 ft | 484 kts | 61° |
| 2026-04-21 07:31 | 40.31989 | -92.07884 | 35129 ft | 484 kts | 61° |
| 2026-04-21 07:31 | 40.34848 | -91.99893 | 35122 ft | 484 kts | 61° |
| 2026-04-21 07:32 | 40.37678 | -91.91938 | 35119 ft | 484 kts | 61° |
| 2026-04-21 07:32 | 40.40517 | -91.83926 | 35128 ft | 484 kts | 61° |
| 2026-04-21 07:33 | 40.43339 | -91.75906 | 35121 ft | 484 kts | 61° |
| 2026-04-21 07:33 | 40.46106 | -91.67828 | 35121 ft | 485 kts | 62° |
| 2026-04-21 07:34 | 40.48830 | -91.59723 | 35128 ft | 485 kts | 62° |
| 2026-04-21 07:34 | 40.51563 | -91.51600 | 35137 ft | 485 kts | 62° |
| 2026-04-21 07:35 | 40.54293 | -91.43484 | 35129 ft | 485 kts | 62° |
| 2026-04-21 07:35 | 40.57033 | -91.35373 | 35105 ft | 485 kts | 61° |
| 2026-04-21 07:36 | 40.59792 | -91.27330 | 35106 ft | 485 kts | 61° |
| 2026-04-21 07:36 | 40.62589 | -91.19177 | 35105 ft | 486 kts | 61° |
| 2026-04-21 07:37 | 40.65336 | -91.11109 | 35117 ft | 486 kts | 61° |
| 2026-04-21 07:37 | 40.68087 | -91.02993 | 35120 ft | 486 kts | 61° |
| 2026-04-21 07:38 | 40.70844 | -90.94858 | 35126 ft | 486 kts | 61° |
| 2026-04-21 07:38 | 40.73591 | -90.86715 | 35141 ft | 486 kts | 61° |
| 2026-04-21 07:39 | 40.76325 | -90.78568 | 35139 ft | 486 kts | 61° |
| 2026-04-21 07:39 | 40.79055 | -90.70409 | 35144 ft | 485 kts | 61° |
| 2026-04-21 07:40 | 40.81759 | -90.62310 | 35143 ft | 485 kts | 61° |
| 2026-04-21 07:40 | 40.84486 | -90.54167 | 35146 ft | 485 kts | 61° |
| 2026-04-21 07:41 | 40.87216 | -90.46014 | 35146 ft | 485 kts | 61° |
| 2026-04-21 07:41 | 40.89939 | -90.37842 | 35161 ft | 486 kts | 61° |
| 2026-04-21 07:42 | 40.92658 | -90.29659 | 34219 ft | 484 kts | 61° |
| 2026-04-21 07:42 | 40.94020 | -90.25547 | 32235 ft | 490 kts | 61° |
| 2026-04-21 07:42 | 40.95400 | -90.21391 | 30257 ft | 496 kts | 62° |
| 2026-04-21 07:43 | 40.96788 | -90.17198 | 28027 ft | 500 kts | 62° |
| 2026-04-21 07:43 | 40.98166 | -90.13015 | 26799 ft | 486 kts | 62° |
| 2026-04-21 07:43 | 40.99464 | -90.09031 | 26319 ft | 457 kts | 62° |
| 2026-04-21 07:43 | 41.00733 | -90.05146 | 25619 ft | 462 kts | 62° |
| 2026-04-21 07:44 | 41.02013 | -90.01248 | 24895 ft | 461 kts | 62° |
| 2026-04-21 07:44 | 41.03293 | -89.97352 | 24368 ft | 465 kts | 62° |
| 2026-04-21 07:44 | 41.04610 | -89.93368 | 24158 ft | 477 kts | 62° |
| 2026-04-21 07:44 | 41.05951 | -89.89325 | 24115 ft | 480 kts | 62° |
| 2026-04-21 07:45 | 41.07279 | -89.85323 | 24133 ft | 482 kts | 62° |
| 2026-04-21 07:45 | 41.08626 | -89.81257 | 24133 ft | 482 kts | 62° |
| 2026-04-21 07:45 | 41.09969 | -89.77184 | 24133 ft | 482 kts | 62° |
| 2026-04-21 07:45 | 41.11311 | -89.73114 | 24132 ft | 482 kts | 62° |
| 2026-04-21 07:46 | 41.12653 | -89.69039 | 24141 ft | 482 kts | 62° |
| 2026-04-21 07:46 | 41.13990 | -89.64960 | 24149 ft | 482 kts | 62° |
| 2026-04-21 07:46 | 41.15320 | -89.60877 | 24140 ft | 482 kts | 62° |
| 2026-04-21 07:46 | 41.16687 | -89.56825 | 24139 ft | 481 kts | 60° |
| 2026-04-21 07:47 | 41.18175 | -89.52858 | 24140 ft | 479 kts | 57° |
| 2026-04-21 07:47 | 41.19751 | -89.48975 | 23605 ft | 477 kts | 56° |
| 2026-04-21 07:47 | 41.21396 | -89.45100 | 22267 ft | 483 kts | 56° |
| 2026-04-21 07:47 | 41.23064 | -89.41227 | 21294 ft | 481 kts | 56° |
| 2026-04-21 07:48 | 41.24695 | -89.37383 | 20671 ft | 471 kts | 57° |
| 2026-04-21 07:48 | 41.26240 | -89.33632 | 20524 ft | 458 kts | 57° |
| 2026-04-21 07:48 | 41.27738 | -89.29914 | 20276 ft | 455 kts | 57° |
| 2026-04-21 07:48 | 41.29219 | -89.26205 | 19992 ft | 454 kts | 58° |
| 2026-04-21 07:49 | 41.30670 | -89.22556 | 19409 ft | 449 kts | 58° |
| 2026-04-21 07:49 | 41.32119 | -89.18899 | 18902 ft | 445 kts | 58° |
| 2026-04-21 07:49 | 41.33563 | -89.15266 | 18388 ft | 442 kts | 58° |
| 2026-04-21 07:49 | 41.35002 | -89.11660 | 17862 ft | 439 kts | 58° |
| 2026-04-21 07:50 | 41.36425 | -89.08095 | 17195 ft | 434 kts | 58° |
| 2026-04-21 07:50 | 41.37837 | -89.04582 | 16735 ft | 429 kts | 58° |
| 2026-04-21 07:50 | 41.39249 | -89.01104 | 16251 ft | 424 kts | 58° |
| 2026-04-21 07:50 | 41.40638 | -88.97656 | 15936 ft | 421 kts | 58° |
| 2026-04-21 07:51 | 41.42007 | -88.94213 | 15692 ft | 420 kts | 59° |
| 2026-04-21 07:51 | 41.43362 | -88.90778 | 15443 ft | 418 kts | 59° |
| 2026-04-21 07:51 | 41.44709 | -88.87360 | 15114 ft | 412 kts | 59° |
| 2026-04-21 07:51 | 41.46028 | -88.84005 | 14523 ft | 405 kts | 59° |
| 2026-04-21 07:52 | 41.47329 | -88.80700 | 13922 ft | 400 kts | 59° |
| 2026-04-21 07:52 | 41.48611 | -88.77443 | 13270 ft | 393 kts | 59° |
| 2026-04-21 07:52 | 41.49873 | -88.74236 | 12657 ft | 387 kts | 59° |
| 2026-04-21 07:52 | 41.51118 | -88.71078 | 12172 ft | 385 kts | 59° |
| 2026-04-21 07:53 | 41.52387 | -88.67864 | 11991 ft | 395 kts | 59° |
| 2026-04-21 07:53 | 41.53667 | -88.64604 | 12011 ft | 397 kts | 59° |
| 2026-04-21 07:53 | 41.54953 | -88.61334 | 12016 ft | 398 kts | 59° |
| 2026-04-21 07:53 | 41.56282 | -88.58093 | 12022 ft | 397 kts | 54° |
| 2026-04-21 07:54 | 41.57945 | -88.55168 | 12016 ft | 393 kts | 44° |
| 2026-04-21 07:54 | 41.59805 | -88.52480 | 12015 ft | 393 kts | 44° |
| 2026-04-21 07:54 | 41.61656 | -88.49795 | 12014 ft | 393 kts | 44° |
| 2026-04-21 07:54 | 41.63478 | -88.47139 | 12023 ft | 393 kts | 44° |
| 2026-04-21 07:55 | 41.65325 | -88.44438 | 12013 ft | 393 kts | 44° |
| 2026-04-21 07:55 | 41.67171 | -88.41738 | 12012 ft | 393 kts | 44° |
| 2026-04-21 07:55 | 41.69016 | -88.39033 | 12011 ft | 393 kts | 44° |
| 2026-04-21 07:55 | 41.70862 | -88.36331 | 12011 ft | 393 kts | 43° |
| 2026-04-21 07:56 | 41.72844 | -88.33851 | 12009 ft | 390 kts | 37° |
| 2026-04-21 07:56 | 41.74871 | -88.31443 | 11252 ft | 391 kts | 38° |
| 2026-04-21 07:56 | 41.76900 | -88.29018 | 10667 ft | 385 kts | 38° |
| 2026-04-21 07:56 | 41.78888 | -88.26630 | 10428 ft | 383 kts | 38° |
| 2026-04-21 07:57 | 41.80867 | -88.24247 | 10183 ft | 382 kts | 38° |
| 2026-04-21 07:57 | 41.82836 | -88.21875 | 9946 ft | 376 kts | 38° |
| 2026-04-21 07:57 | 41.84724 | -88.19576 | 9802 ft | 357 kts | 40° |
| 2026-04-21 07:57 | 41.86273 | -88.17111 | 9672 ft | 344 kts | 52° |
| 2026-04-21 07:58 | 41.87419 | -88.14361 | 9536 ft | 332 kts | 63° |
| 2026-04-21 07:58 | 41.88154 | -88.11488 | 9425 ft | 320 kts | 74° |
| 2026-04-21 07:58 | 41.88494 | -88.08555 | 9118 ft | 316 kts | 85° |
| 2026-04-21 07:58 | 41.88504 | -88.05625 | 8729 ft | 314 kts | 90° |
| 2026-04-21 07:59 | 41.88474 | -88.02704 | 8322 ft | 312 kts | 90° |
| 2026-04-21 07:59 | 41.88447 | -87.99786 | 7912 ft | 311 kts | 90° |
| 2026-04-21 07:59 | 41.88429 | -87.96919 | 7518 ft | 310 kts | 89° |
| 2026-04-21 07:59 | 41.88425 | -87.94036 | 7122 ft | 310 kts | 89° |
| 2026-04-21 08:00 | 41.88426 | -87.91142 | 6729 ft | 309 kts | 89° |
| 2026-04-21 08:00 | 41.88428 | -87.88266 | 6324 ft | 308 kts | 89° |
| 2026-04-21 08:00 | 41.88430 | -87.85377 | 5899 ft | 308 kts | 90° |
| 2026-04-21 08:00 | 41.88433 | -87.82497 | 5458 ft | 309 kts | 91° |
| 2026-04-21 08:01 | 41.88430 | -87.79615 | 5124 ft | 308 kts | 91° |
| 2026-04-21 08:01 | 41.88427 | -87.76734 | 4715 ft | 309 kts | 92° |
| 2026-04-21 08:01 | 41.88422 | -87.73864 | 4340 ft | 305 kts | 93° |
| 2026-04-21 08:02 | 41.88526 | -87.68241 | 3751 ft | 296 kts | 78° |
| 2026-04-21 08:02 | 41.89375 | -87.65809 | 3615 ft | 284 kts | 49° |
| 2026-04-21 08:02 | 41.90827 | -87.64260 | 3503 ft | 264 kts | 18° |
| 2026-04-21 08:02 | 41.92544 | -87.63676 | 3366 ft | 244 kts | 356° |
| 2026-04-21 08:03 | 41.94184 | -87.63816 | 3127 ft | 230 kts | 338° |
| 2026-04-21 08:03 | 41.95642 | -87.64570 | 3035 ft | 222 kts | 320° |
| 2026-04-21 08:03 | 41.96842 | -87.65807 | 3034 ft | 214 kts | 304° |
| 2026-04-21 08:03 | 41.97703 | -87.67350 | 3041 ft | 196 kts | 290° |
| 2026-04-21 08:04 | 41.98187 | -87.68903 | 3028 ft | 163 kts | 276° |
| 2026-04-21 08:04 | 41.98362 | -87.70272 | 3021 ft | 139 kts | 264° |
| 2026-04-21 08:04 | 41.98368 | -87.71547 | 3032 ft | 135 kts | 261° |
| 2026-04-21 08:04 | 41.98371 | -87.72812 | 2973 ft | 135 kts | 261° |
| 2026-04-21 08:05 | 41.98373 | -87.74073 | 2845 ft | 134 kts | 261° |
| 2026-04-21 08:05 | 41.98375 | -87.75325 | 2689 ft | 134 kts | 261° |
| 2026-04-21 08:05 | 41.98377 | -87.76551 | 2532 ft | 133 kts | 260° |
| 2026-04-21 08:05 | 41.98379 | -87.77796 | 2348 ft | 132 kts | 259° |
| 2026-04-21 08:06 | 41.98380 | -87.79000 | 2172 ft | 132 kts | 259° |
| 2026-04-21 08:06 | 41.98382 | -87.80230 | 1996 ft | 131 kts | 258° |
| 2026-04-21 08:06 | 41.98384 | -87.81455 | 1819 ft | 130 kts | 258° |
| 2026-04-21 08:06 | 41.98385 | -87.82676 | 1635 ft | 129 kts | 259° |
| 2026-04-21 08:07 | 41.98386 | -87.83912 | 1435 ft | 133 kts | 262° |
| 2026-04-21 08:07 | 41.98387 | -87.85143 | 1261 ft | 133 kts | 263° |
| 2026-04-21 08:07 | 41.98388 | -87.86409 | 1079 ft | 137 kts | 265° |
| 2026-04-21 08:07 | 41.98389 | -87.87691 | 905 ft | 136 kts | 264° |
| 2026-04-21 08:08 | 41.98393 | -87.88970 | 709 ft | 137 kts | 264° |
| 2026-04-21 08:08 | 41.98385 | -87.90162 | 670 ft | 112 kts | 269° |
| 2026-04-21 08:08 | 41.98387 | -87.91058 | 670 ft | 81 kts | 269° |
| 2026-04-21 08:08 | 41.98383 | -87.91558 | 672 ft | 22 kts | 265° |
| 2026-04-21 08:09 | 41.98320 | -87.91606 | 670 ft | 13 kts | 175° |
| 2026-04-21 08:09 | 41.98288 | -87.91531 | 670 ft | 9 kts | 90° |
| 2026-04-21 08:09 | 41.98288 | -87.91433 | 671 ft | 15 kts | 90° |
| 2026-04-21 08:09 | 41.98288 | -87.91273 | 672 ft | 18 kts | 89° |
| 2026-04-21 08:10 | 41.98289 | -87.91087 | 669 ft | 21 kts | 90° |
| 2026-04-21 08:10 | 41.98289 | -87.90881 | 669 ft | 23 kts | 90° |
| 2026-04-21 08:10 | 41.98289 | -87.90659 | 668 ft | 25 kts | 90° |
| 2026-04-21 08:10 | 41.98289 | -87.90429 | 668 ft | 23 kts | 90° |
| 2026-04-21 08:11 | 41.98288 | -87.90206 | 669 ft | 24 kts | 90° |
| 2026-04-21 08:11 | 41.98288 | -87.89974 | 670 ft | 25 kts | 90° |
| 2026-04-21 08:11 | 41.98288 | -87.89735 | 670 ft | 26 kts | 90° |
| 2026-04-21 08:11 | 41.98241 | -87.89515 | 669 ft | 25 kts | 142° |
| 2026-04-21 08:12 | 41.98116 | -87.89349 | 669 ft | 25 kts | 141° |
| 2026-04-21 08:12 | 41.98004 | -87.89418 | 668 ft | 19 kts | 230° |
| 2026-04-21 08:12 | 41.97900 | -87.89525 | 669 ft | 20 kts | 187° |
| 2026-04-21 08:12 | 41.97759 | -87.89526 | 669 ft | 21 kts | 179° |
| 2026-04-21 08:13 | 41.97618 | -87.89524 | 669 ft | 19 kts | 179° |
| 2026-04-21 08:13 | 41.97487 | -87.89525 | 669 ft | 19 kts | 180° |
| 2026-04-21 08:13 | 41.97360 | -87.89574 | 669 ft | 20 kts | 212° |
| 2026-04-21 08:13 | 41.97277 | -87.89718 | 669 ft | 19 kts | 243° |
| 2026-04-21 08:14 | 41.97281 | -87.89800 | 668 ft | 8 kts | 309° |
| 2026-04-21 08:14 | 41.97344 | -87.89857 | 669 ft | 15 kts | 328° |
| 2026-04-21 08:14 | 41.97414 | -87.89933 | 669 ft | 8 kts | 311° |
| 2026-04-21 08:14 | 41.97431 | -87.89976 | 669 ft | 3 kts | 278° |
| 2026-04-21 08:15 | 41.97432 | -87.89990 | 669 ft | 1 kts | 276° |
| 2026-04-21 08:15 | 41.97432 | -87.89991 | 669 ft | 0 kts | 276° |